createdAt,value
2022-12-07T00:01:09.290Z,21.60
2022-12-07T00:03:40.223Z,21.50
2022-12-07T00:06:09.821Z,21.50
2022-12-07T00:08:39.499Z,21.50
2022-12-07T00:11:09.231Z,21.60
2022-12-07T00:13:37.818Z,21.60
2022-12-07T00:16:07.470Z,21.60
2022-12-07T00:18:35.274Z,21.60
2022-12-07T00:21:03.999Z,21.60
2022-12-07T00:23:32.161Z,21.60
2022-12-07T00:26:07.436Z,21.60
2022-12-07T00:28:35.592Z,21.60
2022-12-07T00:31:05.485Z,21.60
2022-12-07T00:33:34.116Z,21.60
2022-12-07T00:36:03.292Z,21.60
2022-12-07T00:38:32.936Z,21.60
2022-12-07T00:41:02.484Z,21.60
2022-12-07T00:43:32.067Z,21.60
2022-12-07T00:46:00.248Z,21.60
2022-12-07T00:48:28.120Z,21.60
2022-12-07T00:50:55.986Z,21.60
2022-12-07T00:53:23.718Z,21.60
2022-12-07T00:55:51.659Z,21.60
2022-12-07T00:58:19.384Z,21.60
2022-12-07T01:00:48.504Z,21.60
2022-12-07T01:03:18.127Z,21.60
2022-12-07T01:05:52.329Z,21.60
2022-12-07T01:08:20.435Z,21.60
2022-12-07T01:10:48.543Z,21.60
2022-12-07T01:13:17.177Z,21.60
2022-12-07T01:15:46.325Z,21.60
2022-12-07T01:18:15.385Z,21.50
2022-12-07T01:20:43.161Z,21.50
2022-12-07T01:23:10.882Z,21.60
2022-12-07T01:25:38.628Z,21.60
2022-12-07T01:28:06.390Z,21.60
2022-12-07T01:30:34.189Z,21.60
2022-12-07T01:33:01.927Z,21.60
2022-12-07T01:35:30.987Z,21.60
2022-12-07T01:37:58.689Z,21.60
2022-12-07T01:40:26.439Z,21.60
2022-12-07T01:42:54.218Z,21.60
2022-12-07T01:45:45.894Z,21.60
2022-12-07T01:48:16.885Z,21.60
2022-12-07T01:50:49.820Z,21.60
2022-12-07T01:53:18.283Z,21.60
2022-12-07T01:55:48.725Z,21.60
2022-12-07T01:58:18.241Z,21.60
2022-12-07T02:00:46.053Z,21.60
2022-12-07T02:03:20.006Z,21.60
2022-12-07T02:05:50.164Z,21.60
2022-12-07T02:08:19.414Z,21.60
2022-12-07T02:10:47.221Z,21.60
2022-12-07T02:13:18.425Z,21.50
2022-12-07T02:16:14.635Z,21.60
2022-12-07T02:18:57.063Z,21.60
2022-12-07T02:21:34.903Z,21.50
2022-12-07T02:24:29.378Z,21.50
2022-12-07T02:27:36.598Z,21.50
2022-12-07T02:30:07.459Z,21.50
2022-12-07T02:32:47.900Z,21.50
2022-12-07T02:35:21.416Z,21.60
2022-12-07T02:38:00.507Z,21.50
2022-12-07T02:40:33.201Z,21.50
2022-12-07T02:43:06.200Z,21.50
2022-12-07T02:45:37.527Z,21.50
2022-12-07T02:48:07.223Z,21.50
2022-12-07T02:50:35.099Z,21.50
2022-12-07T02:53:02.974Z,21.50
2022-12-07T02:55:35.749Z,21.60
2022-12-07T02:58:24.070Z,21.60
2022-12-07T03:01:04.897Z,21.60
2022-12-07T03:03:33.880Z,21.60
2022-12-07T03:06:10.675Z,21.60
2022-12-07T03:08:50.199Z,21.60
2022-12-07T03:11:26.356Z,21.60
2022-12-07T03:14:01.844Z,21.60
2022-12-07T03:16:35.031Z,21.60
2022-12-07T03:19:07.784Z,21.60
2022-12-07T03:21:40.089Z,21.60
2022-12-07T03:24:13.492Z,21.60
2022-12-07T03:26:46.322Z,21.60
2022-12-07T03:29:18.904Z,21.60
2022-12-07T03:31:53.178Z,21.50
2022-12-07T03:34:26.523Z,21.60
2022-12-07T03:36:59.860Z,21.60
2022-12-07T03:39:32.744Z,21.60
2022-12-07T03:42:03.598Z,21.60
2022-12-07T03:44:31.660Z,21.50
2022-12-07T03:47:05.103Z,21.50
2022-12-07T03:49:39.844Z,21.60
2022-12-07T03:52:14.895Z,21.50
2022-12-07T03:54:49.863Z,21.60
2022-12-07T03:57:19.149Z,21.60
2022-12-07T03:59:47.822Z,21.50
2022-12-07T04:02:17.513Z,21.60
2022-12-07T04:04:45.541Z,21.60
2022-12-07T04:07:13.817Z,21.60
2022-12-07T04:09:41.687Z,21.60
2022-12-07T04:12:09.561Z,21.60
2022-12-07T04:14:37.460Z,21.60
2022-12-07T04:17:05.229Z,21.60
2022-12-07T04:19:36.240Z,21.60
2022-12-07T04:22:06.108Z,21.60
2022-12-07T04:24:34.654Z,21.60
2022-12-07T04:27:02.922Z,21.60
2022-12-07T04:29:30.667Z,21.60
2022-12-07T04:31:58.422Z,21.60
2022-12-07T04:34:26.192Z,21.60
2022-12-07T04:36:55.251Z,21.60
2022-12-07T04:39:25.105Z,21.60
2022-12-07T04:41:53.187Z,21.60
2022-12-07T04:44:21.628Z,21.60
2022-12-07T04:46:50.295Z,21.60
2022-12-07T04:49:18.326Z,21.60
2022-12-07T04:51:46.323Z,21.60
2022-12-07T04:54:16.907Z,21.60
2022-12-07T04:56:45.149Z,21.60
2022-12-07T04:59:13.883Z,21.60
2022-12-07T05:01:41.814Z,21.60
2022-12-07T05:04:09.869Z,21.60
2022-12-07T05:06:37.603Z,21.60
2022-12-07T05:09:06.216Z,21.50
2022-12-07T05:11:41.241Z,21.60
2022-12-07T05:14:12.405Z,21.50
2022-12-07T05:16:41.021Z,21.50
2022-12-07T05:19:09.301Z,21.50
2022-12-07T05:21:37.651Z,21.50
2022-12-07T05:24:06.738Z,21.50
2022-12-07T05:26:35.980Z,21.50
2022-12-07T05:29:04.125Z,21.50
2022-12-07T05:31:32.216Z,21.60
2022-12-07T05:34:00.105Z,21.50
2022-12-07T05:36:29.468Z,21.50
2022-12-07T05:38:57.341Z,21.50
2022-12-07T05:41:42.868Z,21.50
2022-12-07T05:44:11.947Z,21.50
2022-12-07T05:46:39.685Z,21.50
2022-12-07T05:49:07.454Z,21.50
2022-12-07T05:51:35.236Z,21.50
2022-12-07T05:54:02.944Z,21.50
2022-12-07T05:56:30.733Z,21.50
2022-12-07T05:59:16.276Z,21.50
2022-12-07T06:01:45.379Z,21.50
2022-12-07T06:04:13.200Z,21.50
2022-12-07T06:06:41.028Z,21.50
2022-12-07T06:09:09.096Z,21.50
2022-12-07T06:11:54.628Z,21.50
2022-12-07T06:14:22.379Z,21.50
2022-12-07T06:16:51.903Z,21.50
2022-12-07T06:19:19.741Z,21.50
2022-12-07T06:21:47.476Z,21.50
2022-12-07T06:24:17.030Z,21.50
2022-12-07T06:26:45.215Z,21.50
2022-12-07T06:29:13.447Z,21.50
2022-12-07T06:31:41.511Z,21.50
2022-12-07T06:34:13.123Z,21.50
2022-12-07T06:36:41.192Z,21.60
2022-12-07T06:39:09.953Z,21.60
2022-12-07T06:41:38.028Z,21.60
2022-12-07T06:44:06.174Z,21.60
2022-12-07T06:46:34.170Z,21.60
2022-12-07T06:49:01.873Z,21.60
2022-12-07T06:51:30.997Z,21.60
2022-12-07T06:53:59.043Z,21.60
2022-12-07T06:56:26.780Z,21.60
2022-12-07T06:58:54.508Z,21.60
2022-12-07T07:01:22.412Z,21.60
2022-12-07T07:03:50.233Z,21.60
2022-12-07T07:06:18.028Z,21.60
2022-12-07T07:08:47.138Z,21.60
2022-12-07T07:11:14.951Z,21.60
2022-12-07T07:13:42.666Z,21.60
2022-12-07T07:16:11.455Z,21.60
2022-12-07T07:18:39.328Z,21.60
2022-12-07T07:21:07.311Z,21.60
2022-12-07T07:23:35.068Z,21.60
2022-12-07T07:26:04.160Z,21.60
2022-12-07T07:28:31.907Z,21.60
2022-12-07T07:30:59.718Z,21.60
2022-12-07T07:33:27.504Z,21.60
2022-12-07T07:35:55.237Z,21.60
2022-12-07T07:38:22.976Z,21.60
2022-12-07T07:40:50.900Z,21.60
2022-12-07T07:43:20.025Z,21.60
2022-12-07T07:45:47.963Z,21.60
2022-12-07T07:48:15.709Z,21.60
2022-12-07T07:50:43.466Z,21.60
2022-12-07T07:53:11.196Z,21.60
2022-12-07T07:55:38.930Z,21.60
2022-12-07T07:58:06.642Z,21.60
2022-12-07T08:00:35.708Z,21.60
2022-12-07T08:03:03.410Z,21.60
2022-12-07T08:05:31.152Z,21.60
2022-12-07T08:07:59.667Z,21.60
2022-12-07T08:10:27.538Z,21.60
2022-12-07T08:13:14.537Z,21.60
2022-12-07T08:15:45.749Z,21.60
2022-12-07T08:18:14.422Z,21.60
2022-12-07T08:20:43.024Z,21.60
2022-12-07T08:23:11.952Z,21.60
2022-12-07T08:25:40.016Z,21.60
2022-12-07T08:28:08.081Z,21.60
2022-12-07T08:30:35.830Z,21.60
2022-12-07T08:33:04.992Z,21.60
2022-12-07T08:35:34.869Z,21.60
2022-12-07T08:38:03.172Z,21.60
2022-12-07T08:40:31.280Z,21.60
2022-12-07T08:42:59.020Z,21.60
2022-12-07T08:45:27.803Z,21.60
2022-12-07T08:48:02.044Z,21.60
2022-12-07T08:50:31.352Z,21.60
2022-12-07T08:53:00.734Z,21.60
2022-12-07T08:55:29.632Z,21.60
2022-12-07T08:57:58.931Z,21.60
2022-12-07T09:00:27.166Z,21.60
2022-12-07T09:02:55.835Z,21.60
2022-12-07T09:05:23.989Z,21.60
2022-12-07T09:07:57.520Z,21.60
2022-12-07T09:10:25.368Z,21.60
2022-12-07T09:12:53.262Z,21.60
2022-12-07T09:15:21.145Z,21.60
2022-12-07T09:17:48.966Z,21.60
2022-12-07T09:20:16.781Z,21.60
2022-12-07T09:22:44.486Z,21.60
2022-12-07T09:25:13.556Z,21.60
2022-12-07T09:27:41.322Z,21.60
2022-12-07T09:30:09.885Z,21.60
2022-12-07T09:32:37.661Z,21.60
2022-12-07T09:35:05.748Z,21.60
2022-12-07T09:37:36.022Z,21.60
2022-12-07T09:40:04.818Z,21.60
2022-12-07T09:42:37.429Z,21.60
2022-12-07T09:45:08.349Z,21.60
2022-12-07T09:47:36.061Z,21.60
2022-12-07T09:50:07.450Z,21.60
2022-12-07T09:52:38.915Z,21.60
2022-12-07T09:55:13.013Z,21.60
2022-12-07T09:57:43.021Z,21.60
2022-12-07T10:00:15.307Z,21.60
2022-12-07T10:02:45.672Z,21.60
2022-12-07T10:05:22.099Z,21.70
2022-12-07T10:07:51.954Z,21.70
2022-12-07T10:10:24.195Z,21.70
2022-12-07T10:12:58.914Z,21.70
2022-12-07T10:15:44.483Z,21.70
2022-12-07T10:18:33.017Z,21.70
2022-12-07T10:21:17.142Z,21.70
2022-12-07T10:24:01.998Z,21.70
2022-12-07T10:26:33.386Z,21.70
2022-12-07T10:29:04.915Z,21.70
2022-12-07T10:31:32.750Z,21.70
2022-12-07T10:34:02.685Z,21.70
2022-12-07T10:36:38.159Z,21.70
2022-12-07T10:39:14.407Z,21.70
2022-12-07T10:41:56.261Z,21.70
2022-12-07T10:44:28.491Z,21.70
2022-12-07T10:47:16.275Z,21.80
2022-12-07T10:50:10.768Z,21.80
2022-12-07T10:52:50.655Z,21.80
2022-12-07T10:55:25.302Z,21.90
2022-12-07T10:58:19.406Z,21.90
2022-12-07T11:00:57.400Z,21.90
2022-12-07T11:03:55.120Z,21.90
2022-12-07T11:06:33.455Z,22.00
2022-12-07T11:09:13.227Z,21.90
2022-12-07T11:11:49.857Z,21.90
2022-12-07T11:14:24.779Z,21.90
2022-12-07T11:16:58.800Z,21.90
2022-12-07T11:19:41.793Z,21.90
2022-12-07T11:22:18.315Z,22.00
2022-12-07T11:24:54.017Z,22.00
2022-12-07T11:27:29.022Z,22.00
2022-12-07T11:30:14.358Z,22.00
2022-12-07T11:33:03.428Z,22.00
2022-12-07T11:35:43.249Z,21.90
2022-12-07T11:38:15.504Z,21.90
2022-12-07T11:40:47.307Z,21.90
2022-12-07T11:43:23.433Z,22.00
2022-12-07T11:46:00.106Z,22.00
2022-12-07T11:48:35.155Z,22.00
2022-12-07T11:51:05.261Z,22.00
2022-12-07T11:53:38.949Z,22.00
2022-12-07T11:56:11.153Z,22.00
2022-12-07T11:58:51.084Z,22.00
2022-12-07T12:01:37.888Z,22.00
2022-12-07T12:04:21.408Z,22.00
2022-12-07T12:06:49.292Z,22.00
2022-12-07T12:15:37.776Z,22.00
2022-12-07T12:18:23.296Z,22.00
2022-12-07T12:20:58.055Z,22.00
2022-12-07T12:23:30.611Z,22.00
2022-12-07T12:26:01.544Z,22.00
2022-12-07T12:28:32.121Z,22.00
2022-12-07T12:31:15.142Z,22.00
2022-12-07T12:33:48.001Z,21.90
2022-12-07T12:36:24.637Z,21.90
2022-12-07T12:39:08.777Z,21.90
2022-12-07T12:42:07.346Z,21.90
2022-12-07T12:45:06.176Z,21.90
2022-12-07T12:47:59.282Z,21.90
2022-12-07T12:50:32.851Z,21.90
2022-12-07T12:53:04.880Z,21.90
2022-12-07T12:56:08.491Z,21.90
2022-12-07T12:58:41.975Z,21.90
2022-12-07T13:01:47.035Z,21.90
2022-12-07T13:04:49.948Z,21.90
2022-12-07T13:07:51.639Z,21.90
2022-12-07T13:10:41.177Z,21.90
2022-12-07T13:13:34.169Z,21.90
2022-12-07T13:16:39.460Z,21.90
2022-12-07T13:19:43.329Z,21.70
2022-12-07T13:22:44.141Z,21.50
2022-12-07T13:25:14.735Z,21.50
2022-12-07T13:27:49.004Z,21.40
2022-12-07T13:30:20.638Z,21.40
2022-12-07T13:32:54.719Z,21.40
2022-12-07T13:35:33.945Z,21.40
2022-12-07T13:38:05.699Z,21.40
2022-12-07T13:40:33.609Z,21.50
2022-12-07T13:43:04.321Z,21.50
2022-12-07T13:45:52.448Z,21.50
2022-12-07T13:48:29.709Z,21.60
2022-12-07T13:50:59.272Z,21.60
2022-12-07T13:53:31.018Z,21.60
2022-12-07T13:55:59.675Z,21.60
2022-12-07T13:58:32.493Z,21.60
2022-12-07T14:01:01.229Z,21.70
2022-12-07T14:03:32.184Z,21.70
2022-12-07T14:06:17.329Z,21.70
2022-12-07T14:08:45.992Z,21.70
2022-12-07T14:11:18.791Z,21.80
2022-12-07T14:13:57.904Z,21.80
2022-12-07T14:16:29.789Z,21.80
2022-12-07T14:18:59.246Z,21.90
2022-12-07T14:21:29.074Z,21.90
2022-12-07T14:24:18.342Z,21.90
2022-12-07T14:26:48.221Z,21.80
2022-12-07T14:29:31.168Z,21.80
2022-12-07T14:32:00.593Z,21.80
2022-12-07T14:34:28.471Z,21.80
2022-12-07T14:36:56.188Z,21.80
2022-12-07T14:39:23.953Z,21.80
2022-12-07T14:41:54.605Z,21.80
2022-12-07T14:44:29.340Z,21.80
2022-12-07T14:49:49.424Z,21.80
2022-12-07T14:55:16.241Z,21.80
2022-12-07T14:57:43.981Z,21.80
2022-12-07T15:00:18.109Z,21.80
2022-12-07T15:02:46.426Z,21.80
2022-12-07T15:05:16.531Z,21.80
2022-12-07T15:07:45.207Z,21.80
2022-12-07T15:10:23.513Z,21.80
2022-12-07T15:12:52.357Z,21.80
2022-12-07T15:15:21.501Z,21.80
2022-12-07T15:17:49.245Z,21.80
2022-12-07T15:20:18.437Z,21.80
2022-12-07T15:22:46.288Z,21.80
2022-12-07T15:25:15.749Z,21.80
2022-12-07T15:27:43.569Z,21.80
2022-12-07T15:30:11.782Z,21.80
2022-12-07T15:32:40.930Z,21.80
2022-12-07T15:35:09.499Z,21.70
2022-12-07T15:37:37.328Z,21.70
2022-12-07T15:40:08.169Z,21.70
2022-12-07T15:42:36.848Z,21.70
2022-12-07T15:45:07.837Z,21.70
2022-12-07T15:48:02.499Z,21.70
2022-12-07T15:50:28.083Z,21.70
2022-12-07T15:52:55.795Z,21.70
2022-12-07T15:55:23.561Z,21.70
2022-12-07T15:57:51.352Z,21.70
2022-12-07T16:00:20.485Z,21.70
2022-12-07T16:02:48.300Z,21.70
2022-12-07T16:05:16.184Z,21.70
2022-12-07T16:07:47.500Z,21.70
2022-12-07T16:10:15.532Z,21.70
2022-12-07T16:12:43.253Z,21.70
2022-12-07T16:15:11.905Z,21.70
2022-12-07T16:17:39.652Z,21.70
2022-12-07T16:20:09.061Z,21.70
2022-12-07T16:22:37.698Z,21.70
2022-12-07T16:25:07.481Z,21.70
2022-12-07T16:27:35.943Z,21.70
2022-12-07T16:30:04.019Z,21.70
2022-12-07T16:32:31.761Z,21.70
2022-12-07T16:34:59.555Z,21.70
2022-12-07T16:37:27.262Z,21.70
2022-12-07T16:39:55.011Z,21.70
2022-12-07T16:42:24.087Z,21.70
2022-12-07T16:44:51.820Z,21.70
2022-12-07T16:47:19.619Z,21.70
2022-12-07T16:49:47.332Z,21.70
2022-12-07T16:52:20.232Z,21.70
2022-12-07T16:54:49.606Z,21.70
2022-12-07T16:57:22.431Z,21.70
2022-12-07T16:59:53.236Z,21.70
2022-12-07T17:02:21.358Z,21.70
2022-12-07T17:04:49.148Z,21.70
2022-12-07T17:07:17.106Z,21.70
2022-12-07T17:09:44.963Z,21.70
2022-12-07T17:12:12.700Z,21.70
2022-12-07T17:14:58.028Z,21.70
2022-12-07T17:17:27.119Z,21.70
2022-12-07T17:19:54.935Z,21.80
2022-12-07T17:22:22.811Z,21.80
2022-12-07T17:24:50.556Z,21.80
2022-12-07T17:27:18.598Z,21.80
2022-12-07T17:29:46.375Z,21.80
2022-12-07T17:32:14.130Z,21.80
2022-12-07T17:34:43.619Z,21.80
2022-12-07T17:37:11.360Z,21.90
2022-12-07T17:39:39.196Z,21.90
2022-12-07T17:42:24.699Z,22.00
2022-12-07T17:44:52.503Z,22.10
2022-12-07T17:47:21.545Z,22.10
2022-12-07T17:49:50.665Z,22.20
2022-12-07T17:52:36.160Z,22.20
2022-12-07T17:55:04.314Z,22.20
2022-12-07T17:57:32.355Z,22.20
2022-12-07T18:00:00.243Z,22.20
2022-12-07T18:02:28.023Z,22.20
2022-12-07T18:04:57.332Z,22.20
2022-12-07T18:07:25.159Z,22.10
2022-12-07T18:09:52.931Z,22.10
2022-12-07T18:12:20.731Z,22.10
2022-12-07T18:14:50.234Z,22.10
2022-12-07T18:17:18.027Z,22.10
2022-12-07T18:19:45.865Z,22.10
2022-12-07T18:22:14.960Z,22.00
2022-12-07T18:24:43.128Z,22.00
2022-12-07T18:27:10.868Z,22.00
2022-12-07T18:29:38.667Z,22.00
2022-12-07T18:32:06.761Z,22.00
2022-12-07T18:34:34.564Z,22.00
2022-12-07T18:37:02.306Z,22.00
2022-12-07T18:39:33.952Z,22.00
2022-12-07T18:42:02.251Z,21.90
2022-12-07T18:44:30.101Z,21.90
2022-12-07T18:46:57.844Z,21.90
2022-12-07T18:49:25.754Z,21.90
2022-12-07T18:51:53.543Z,21.90
2022-12-07T18:54:21.316Z,21.90
2022-12-07T18:56:50.419Z,21.90
2022-12-07T18:59:35.859Z,21.90
2022-12-07T19:02:03.822Z,21.90
2022-12-07T19:04:31.704Z,21.80
2022-12-07T19:06:59.538Z,21.80
2022-12-07T19:09:27.296Z,21.80
2022-12-07T19:11:57.090Z,21.80
2022-12-07T19:14:27.167Z,21.80
2022-12-07T19:16:56.774Z,21.80
2022-12-07T19:19:30.020Z,21.80
2022-12-07T19:21:57.928Z,21.80
2022-12-07T19:24:25.684Z,21.80
2022-12-07T19:26:53.612Z,21.80
2022-12-07T19:29:22.705Z,21.80
2022-12-07T19:31:50.613Z,21.80
2022-12-07T19:34:18.840Z,21.80
2022-12-07T19:36:47.648Z,21.80
2022-12-07T19:39:16.111Z,21.80
2022-12-07T19:41:44.639Z,21.80
2022-12-07T19:44:14.192Z,21.80
2022-12-07T19:46:46.396Z,21.80
2022-12-07T19:49:16.085Z,21.80
2022-12-07T19:51:45.035Z,21.80
2022-12-07T19:54:14.683Z,21.80
2022-12-07T19:56:43.779Z,21.70
2022-12-07T19:59:11.797Z,21.70
2022-12-07T20:01:40.704Z,21.70
2022-12-07T20:04:12.111Z,21.70
2022-12-07T20:06:40.551Z,21.70
2022-12-07T20:09:08.283Z,21.70
2022-12-07T20:11:55.251Z,21.70
2022-12-07T20:14:23.468Z,21.70
2022-12-07T20:16:51.911Z,21.70
2022-12-07T20:19:21.158Z,21.70
2022-12-07T20:21:48.920Z,21.70
2022-12-07T20:24:19.284Z,21.70
2022-12-07T20:26:49.514Z,21.70
2022-12-07T20:29:19.428Z,21.70
2022-12-07T20:31:47.498Z,21.70
2022-12-07T20:34:15.798Z,21.70
2022-12-07T20:36:45.196Z,21.70
2022-12-07T20:39:13.460Z,21.70
2022-12-07T20:41:59.091Z,21.70
2022-12-07T20:44:27.297Z,21.70
2022-12-07T20:46:55.310Z,21.70
2022-12-07T20:49:23.455Z,21.70
2022-12-07T20:51:52.499Z,21.60
2022-12-07T20:54:20.239Z,21.70
2022-12-07T20:56:47.973Z,21.70
2022-12-07T20:59:16.746Z,21.60
2022-12-07T21:01:45.357Z,21.60
2022-12-07T21:04:14.554Z,21.60
2022-12-07T21:06:43.157Z,21.60
2022-12-07T21:09:12.577Z,21.60
2022-12-07T21:11:41.351Z,21.60
2022-12-07T21:14:09.725Z,21.60
2022-12-07T21:16:37.480Z,21.60
2022-12-07T21:19:06.092Z,21.60
2022-12-07T21:21:34.757Z,21.60
2022-12-07T21:24:04.052Z,21.60
2022-12-07T21:26:34.853Z,21.60
2022-12-07T21:29:03.037Z,21.60
2022-12-07T21:31:31.072Z,21.60
2022-12-07T21:33:58.904Z,21.60
2022-12-07T21:36:27.271Z,21.60
2022-12-07T21:38:55.274Z,21.60
2022-12-07T21:41:24.734Z,21.60
2022-12-07T21:43:54.243Z,21.60
2022-12-07T21:46:28.090Z,21.60
2022-12-07T21:49:03.339Z,21.60
2022-12-07T21:51:31.923Z,21.60
2022-12-07T21:54:01.516Z,21.60
2022-12-07T21:56:31.202Z,21.60
2022-12-07T21:59:03.533Z,21.60
2022-12-07T22:01:35.579Z,21.60
2022-12-07T22:04:05.349Z,21.60
2022-12-07T22:06:35.239Z,21.60
2022-12-07T22:09:03.397Z,21.60
2022-12-07T22:11:31.343Z,21.60
2022-12-07T22:14:16.657Z,21.60
2022-12-07T22:16:45.788Z,21.60
2022-12-07T22:19:13.515Z,21.60
2022-12-07T22:21:41.325Z,21.60
2022-12-07T22:24:10.917Z,21.60
2022-12-07T22:26:38.667Z,21.60
2022-12-07T22:29:06.436Z,21.60
2022-12-07T22:31:34.311Z,21.60
2022-12-07T22:34:03.478Z,21.60
2022-12-07T22:36:31.179Z,21.60
2022-12-07T22:38:58.916Z,21.60
2022-12-07T22:41:29.224Z,21.60
2022-12-07T22:43:57.687Z,21.50
2022-12-07T22:46:26.099Z,21.60
2022-12-07T22:48:54.733Z,21.60
2022-12-07T22:51:26.286Z,21.60
2022-12-07T22:53:55.228Z,21.50
2022-12-07T22:56:23.934Z,21.60
2022-12-07T22:58:51.806Z,21.60
2022-12-07T23:01:20.752Z,21.60
2022-12-07T23:03:49.369Z,21.60
2022-12-07T23:06:19.108Z,21.50
2022-12-07T23:08:49.211Z,21.60
2022-12-07T23:11:40.073Z,21.50
2022-12-07T23:14:12.952Z,21.60
2022-12-07T23:16:40.796Z,21.60
2022-12-07T23:19:08.564Z,21.60
2022-12-07T23:21:36.635Z,21.60
2022-12-07T23:24:06.670Z,21.60
2022-12-07T23:26:34.465Z,21.60
2022-12-07T23:29:02.211Z,21.60
2022-12-07T23:31:30.003Z,21.60
2022-12-07T23:33:57.764Z,21.60
2022-12-07T23:36:27.191Z,21.60
2022-12-07T23:38:56.560Z,21.60
2022-12-07T23:41:27.629Z,21.60
2022-12-07T23:43:56.085Z,21.60
2022-12-07T23:46:25.668Z,21.60
2022-12-07T23:48:55.161Z,21.60
2022-12-07T23:51:23.006Z,21.60
2022-12-07T23:53:52.417Z,21.60
2022-12-07T23:56:23.053Z,21.60
2022-12-07T23:58:52.825Z,21.60
